Time;durP1;ratioP1;P1;durP2;ratioP2;P2;SDS_P1;SDS_P2;PMS_P1;PMS_P2;Temp;Humidity;BMP_temperature;BMP_pressure;BME280_temperature;BME280_humidity;BME280_pressure;Samples;Min_cycle;Max_cycle;Signal;HPM_P1;HPM_P2
2022/12/26 00:01:45;0.00;0.00;0.62;0.00;0.00;0.62;1.40;0.80;;;24.20;29.90;;;;;;2264015;61;20448;-54
2022/12/26 00:04:30;0.00;0.00;0.62;0.00;0.00;0.62;1.63;0.70;;;24.20;29.90;;;;;;2263393;61;20430;-52
2022/12/26 00:07:15;0.00;0.00;0.62;0.00;0.00;0.62;1.70;0.70;;;24.20;30.40;;;;;;2263192;61;20379;-54
2022/12/26 00:10:00;0.00;0.00;0.62;0.00;0.00;0.62;1.67;0.80;;;24.20;30.00;;;;;;2264207;61;20434;-56
2022/12/26 00:12:46;0.00;0.00;0.62;0.00;0.00;0.62;1.50;0.80;;;24.20;30.00;;;;;;2263359;61;20403;-58
2022/12/26 00:15:31;0.00;0.00;0.62;0.00;0.00;0.62;2.00;0.97;;;24.20;30.00;;;;;;2261810;61;20947;-56
2022/12/26 00:18:16;0.00;0.00;0.62;0.00;0.00;0.62;1.30;0.70;;;24.20;30.00;;;;;;2263625;61;20363;-58
2022/12/26 00:21:01;0.00;0.00;0.62;0.00;0.00;0.62;1.20;0.70;;;24.20;30.00;;;;;;2260220;61;20516;-58
2022/12/26 00:23:46;0.00;0.00;0.62;0.00;0.00;0.62;1.40;0.73;;;24.20;30.00;;;;;;2259296;61;20759;-57
2022/12/26 00:26:33;0.00;0.00;0.62;0.00;0.00;0.62;1.50;0.90;;;24.20;30.00;;;;;;2259679;61;20369;-57
2022/12/26 00:29:19;0.00;0.00;0.62;0.00;0.00;0.62;1.30;0.70;;;24.30;30.00;;;;;;2259426;61;20907;-54
2022/12/26 00:32:04;0.00;0.00;0.62;0.00;0.00;0.62;1.83;0.70;;;24.20;30.00;;;;;;2259324;61;20392;-60
2022/12/26 00:34:48;0.00;0.00;0.62;0.00;0.00;0.62;1.40;0.80;;;24.20;30.00;;;;;;2258789;61;20784;-61
2022/12/26 00:37:33;0.00;0.00;0.62;0.00;0.00;0.62;1.30;0.73;;;24.20;30.00;;;;;;2258129;61;20365;-58
2022/12/26 00:40:19;0.00;0.00;0.62;0.00;0.00;0.62;1.70;1.00;;;24.30;30.00;;;;;;2258802;61;20411;-57
2022/12/26 00:43:03;0.00;0.00;0.62;0.00;0.00;0.62;1.37;0.80;;;24.30;30.00;;;;;;2258711;61;20381;-61
2022/12/26 00:45:49;0.00;0.00;0.62;0.00;0.00;0.62;1.27;0.67;;;24.30;30.00;;;;;;2258490;61;20415;-62
2022/12/26 00:48:34;0.00;0.00;0.62;0.00;0.00;0.62;1.93;0.80;;;24.30;30.00;;;;;;2259213;61;20457;-56
2022/12/26 00:51:19;0.00;0.00;0.62;0.00;0.00;0.62;1.20;0.70;;;24.30;30.00;;;;;;2257675;61;20479;-54
2022/12/26 00:54:04;0.00;0.00;0.62;0.00;0.00;0.62;1.20;0.67;;;24.30;30.00;;;;;;2258447;61;20426;-57
2022/12/26 00:56:49;0.00;0.00;0.62;0.00;0.00;0.62;1.60;0.70;;;24.30;30.00;;;;;;2258940;61;20364;-59
2022/12/26 00:59:33;0.00;0.00;0.62;0.00;0.00;0.62;1.20;0.70;;;24.30;29.90;;;;;;2258366;61;20781;-57
2022/12/26 01:02:38;0.00;0.00;0.62;0.00;0.00;0.62;1.40;0.93;;;24.30;29.90;;;;;;2258930;61;20904;-53
2022/12/26 01:05:24;0.00;0.00;0.62;0.00;0.00;0.62;1.30;0.70;;;24.30;29.90;;;;;;2258659;61;20900;-56
2022/12/26 01:08:10;0.00;0.00;0.62;0.00;0.00;0.62;1.50;0.70;;;24.30;29.90;;;;;;2258905;61;20819;-59
2022/12/26 01:10:55;0.00;0.00;0.62;0.00;0.00;0.62;1.40;0.80;;;24.30;29.90;;;;;;2258488;61;20407;-59
2022/12/26 01:13:40;0.00;0.00;0.62;0.00;0.00;0.62;1.40;0.60;;;24.30;30.40;;;;;;2257765;61;20839;-56
2022/12/26 01:16:25;0.00;0.00;0.62;0.00;0.00;0.62;1.30;0.70;;;24.30;29.80;;;;;;2259204;61;20424;-56
2022/12/26 01:19:12;0.00;0.00;0.62;0.00;0.00;0.62;1.80;1.00;;;24.40;29.90;;;;;;2258327;61;20376;-56
2022/12/26 01:21:57;0.00;0.00;0.62;0.00;0.00;0.62;1.30;0.70;;;24.30;30.30;;;;;;2258364;61;20391;-58
2022/12/26 01:24:42;0.00;0.00;0.62;0.00;0.00;0.62;1.27;0.63;;;24.30;29.80;;;;;;2258577;61;20384;-57
2022/12/26 01:27:27;0.00;0.00;0.62;0.00;0.00;0.62;1.30;0.73;;;24.40;29.80;;;;;;2258756;61;20368;-59
2022/12/26 01:30:14;0.00;0.00;0.62;0.00;0.00;0.62;1.50;0.77;;;24.30;30.30;;;;;;2258630;61;20431;-58
2022/12/26 01:32:59;0.00;0.00;0.62;0.00;0.00;0.62;1.30;0.60;;;24.40;29.80;;;;;;2258638;61;20424;-58
2022/12/26 01:35:52;0.00;0.00;0.62;0.00;0.00;0.62;2.07;0.70;;;24.40;29.80;;;;;;2257974;61;20419;-61
2022/12/26 01:38:37;0.00;0.00;0.62;0.00;0.00;0.62;1.30;0.67;;;24.40;29.80;;;;;;2258912;61;20407;-63
2022/12/26 01:41:22;0.00;0.00;0.62;0.00;0.00;0.62;1.50;0.70;;;24.40;29.90;;;;;;2258089;61;20814;-62
2022/12/26 01:44:59;0.00;0.00;0.62;0.00;0.00;0.62;1.50;0.70;;;24.30;29.80;;;;;;2257988;61;20426;-62
2022/12/26 01:47:50;0.00;0.00;0.62;0.00;0.00;0.62;1.70;0.83;;;24.40;29.80;;;;;;2258872;61;20396;-61
2022/12/26 01:50:44;0.00;0.00;0.62;0.00;0.00;0.62;1.30;0.70;;;24.40;29.70;;;;;;2257355;61;20403;-61
2022/12/26 01:53:33;0.00;0.00;0.62;0.00;0.00;0.62;1.40;0.80;;;24.40;29.70;;;;;;2258689;61;20431;-59
2022/12/26 01:56:22;0.00;0.00;0.62;0.00;0.00;0.62;1.30;0.60;;;24.30;29.60;;;;;;2258538;61;20369;-56
2022/12/26 01:59:14;0.00;0.00;0.62;0.00;0.00;0.62;1.30;0.70;;;24.40;29.70;;;;;;2257992;61;20473;-56
2022/12/26 02:02:00;0.00;0.00;0.62;0.00;0.00;0.62;1.73;0.90;;;24.40;29.70;;;;;;2258713;61;20402;-59
2022/12/26 02:07:53;0.00;0.00;0.62;0.00;0.00;0.62;1.33;0.80;;;24.30;29.70;;;;;;2258822;61;20511;-59
2022/12/26 02:10:47;0.00;0.00;0.62;0.00;0.00;0.62;1.40;0.77;;;24.30;29.60;;;;;;2258494;61;20901;-58
2022/12/26 02:13:34;0.00;0.00;0.62;0.00;0.00;0.62;1.40;0.70;;;24.30;29.70;;;;;;2257863;61;20385;-56
2022/12/26 02:16:19;0.00;0.00;0.62;0.00;0.00;0.62;1.67;0.93;;;24.30;29.60;;;;;;2258833;61;20957;-55
2022/12/26 02:19:18;0.00;0.00;0.62;0.00;0.00;0.62;1.60;0.90;;;24.30;29.60;;;;;;2258756;61;20365;-54
2022/12/26 02:22:40;0.00;0.00;0.62;0.00;0.00;0.62;1.60;1.00;;;24.30;29.60;;;;;;2258424;61;20357;-56
2022/12/26 02:26:16;0.00;0.00;0.62;0.00;0.00;0.62;1.50;0.73;;;24.30;29.70;;;;;;2258642;61;20445;-59
2022/12/26 02:29:53;0.00;0.00;0.62;0.00;0.00;0.62;1.63;1.07;;;24.30;29.60;;;;;;2258186;61;20361;-56
2022/12/26 02:33:25;0.00;0.00;0.62;0.00;0.00;0.62;1.50;0.90;;;24.20;29.60;;;;;;2258461;61;20868;-55
2022/12/26 02:36:38;0.00;0.00;0.62;0.00;0.00;0.62;1.40;0.80;;;24.20;29.60;;;;;;2258080;61;20448;-57
2022/12/26 02:39:41;0.00;0.00;0.62;0.00;0.00;0.62;1.70;1.20;;;24.20;29.60;;;;;;2258326;61;20365;-57
2022/12/26 02:42:37;0.00;0.00;0.62;0.00;0.00;0.62;1.70;1.00;;;24.20;29.60;;;;;;2257588;61;20364;-55
2022/12/26 02:48:46;0.00;0.00;0.62;0.00;0.00;0.62;1.53;1.00;;;24.20;29.70;;;;;;2258320;61;20400;-52
2022/12/26 03:13:49;0.00;0.00;0.62;0.00;0.00;0.62;1.50;1.13;;;24.00;29.70;;;;;;2258634;61;20919;-58
2022/12/26 03:19:57;0.00;0.00;0.62;0.00;0.00;0.62;1.80;1.20;;;24.00;29.70;;;;;;2258629;61;20446;-60
2022/12/26 03:22:45;0.00;0.00;0.62;0.00;0.00;0.62;1.77;1.20;;;23.90;30.10;;;;;;2259075;61;20386;-61
2022/12/26 03:28:43;0.00;0.00;0.62;0.00;0.00;0.62;1.80;1.37;;;23.90;29.70;;;;;;2259097;61;20916;-61
2022/12/26 03:31:28;0.00;0.00;0.62;0.00;0.00;0.62;1.53;1.10;;;23.90;29.70;;;;;;2258869;61;20369;-60
2022/12/26 03:34:16;0.00;0.00;0.62;0.00;0.00;0.62;1.70;1.20;;;23.90;29.70;;;;;;2258274;61;20468;-60
2022/12/26 03:37:33;0.00;0.00;0.62;0.00;0.00;0.62;1.50;0.90;;;23.80;29.60;;;;;;2258808;61;20405;-61
2022/12/26 04:44:06;0.00;0.00;0.62;0.00;0.00;0.62;1.67;1.30;;;23.50;29.70;;;;;;2259029;61;20388;-56
2022/12/26 04:46:54;0.00;0.00;0.62;0.00;0.00;0.62;1.50;1.07;;;23.50;29.70;;;;;;2258826;61;20368;-51
2022/12/26 04:52:59;0.00;0.00;0.62;0.00;0.00;0.62;1.60;1.10;;;23.50;29.80;;;;;;2258594;61;20439;-53
2022/12/26 04:55:44;0.00;0.00;0.62;0.00;0.00;0.62;2.40;1.80;;;23.50;29.80;;;;;;2258293;61;20988;-55
2022/12/26 04:58:30;0.00;0.00;0.62;0.00;0.00;0.62;2.27;1.70;;;23.50;29.80;;;;;;2258996;61;20415;-56
2022/12/26 05:10:31;0.00;0.00;0.62;0.00;0.00;0.62;2.20;1.80;;;23.40;29.70;;;;;;2258413;61;20888;-55
2022/12/26 05:13:15;0.00;0.00;0.62;0.00;0.00;0.62;1.70;1.53;;;23.40;29.70;;;;;;2258657;61;20389;-58
2022/12/26 05:28:42;0.00;0.00;0.62;0.00;0.00;0.62;2.53;1.90;;;23.20;29.60;;;;;;2258883;61;20453;-58
2022/12/26 05:31:28;0.00;0.00;0.62;0.00;0.00;0.62;2.00;1.60;;;23.20;29.60;;;;;;2258517;61;20368;-57
2022/12/26 05:34:16;0.00;0.00;0.62;0.00;0.00;0.62;3.07;1.57;;;23.20;29.60;;;;;;2258147;61;20423;-59
2022/12/26 05:37:01;0.00;0.00;0.62;0.00;0.00;0.62;2.00;1.70;;;23.20;29.60;;;;;;2258940;61;20455;-58
2022/12/26 05:39:46;0.00;0.00;0.62;0.00;0.00;0.62;2.60;2.30;;;23.20;29.60;;;;;;2257981;61;20361;-58
2022/12/26 05:42:31;0.00;0.00;0.62;0.00;0.00;0.62;3.30;2.07;;;23.10;29.60;;;;;;2258836;61;20419;-56
2022/12/26 05:45:16;0.00;0.00;0.62;0.00;0.00;0.62;2.30;2.10;;;23.10;29.60;;;;;;2258531;61;20376;-59
2022/12/26 05:48:02;0.00;0.00;0.62;0.00;0.00;0.62;2.10;1.90;;;23.10;29.60;;;;;;2258227;61;20659;-58
2022/12/26 05:50:47;0.00;0.00;0.62;0.00;0.00;0.62;2.13;1.93;;;23.00;29.60;;;;;;2258653;61;20396;-59
2022/12/26 05:53:32;0.00;0.00;0.62;0.00;0.00;0.62;3.03;1.93;;;23.00;29.60;;;;;;2258403;61;20412;-59
2022/12/26 05:56:18;0.00;0.00;0.62;0.00;0.00;0.62;2.20;1.60;;;23.00;29.60;;;;;;2258192;61;20893;-59
2022/12/26 05:59:03;0.00;0.00;0.62;0.00;0.00;0.62;1.83;1.60;;;23.00;29.60;;;;;;2258407;61;20415;-60
2022/12/26 06:01:48;0.00;0.00;0.62;0.00;0.00;0.62;2.80;2.10;;;23.00;29.70;;;;;;2257937;61;20813;-58
2022/12/26 06:04:35;0.00;0.00;0.62;0.00;0.00;0.62;3.10;1.90;;;23.00;29.70;;;;;;2258464;61;20855;-55
2022/12/26 06:07:20;0.00;0.00;0.62;0.00;0.00;0.62;2.00;1.67;;;23.00;29.70;;;;;;2258641;61;20365;-60
2022/12/26 06:10:06;0.00;0.00;0.62;0.00;0.00;0.62;1.90;1.40;;;22.90;29.70;;;;;;2258197;61;20826;-58
2022/12/26 06:12:51;0.00;0.00;0.62;0.00;0.00;0.62;2.40;1.80;;;22.90;29.70;;;;;;2258401;61;20384;-59
2022/12/26 06:15:38;0.00;0.00;0.62;0.00;0.00;0.62;2.23;1.87;;;22.90;29.70;;;;;;2258672;61;20416;-58
2022/12/26 06:18:22;0.00;0.00;0.62;0.00;0.00;0.62;1.80;1.43;;;22.90;29.70;;;;;;2257988;61;20361;-59
2022/12/26 06:21:11;0.00;0.00;0.62;0.00;0.00;0.62;1.97;1.40;;;22.90;29.70;;;;;;2258856;61;20954;-57
2022/12/26 06:23:56;0.00;0.00;0.62;0.00;0.00;0.62;1.70;1.20;;;22.90;29.70;;;;;;2257703;61;20458;-54
2022/12/26 06:26:40;0.00;0.00;0.62;0.00;0.00;0.62;1.97;1.50;;;22.90;29.70;;;;;;2258216;61;20408;-59
2022/12/26 06:29:25;0.00;0.00;0.62;0.00;0.00;0.62;2.17;1.80;;;22.90;29.70;;;;;;2258593;61;20370;-60
2022/12/26 06:32:09;0.00;0.00;0.62;0.00;0.00;0.62;2.60;2.20;;;22.90;29.70;;;;;;2258133;61;20427;-60
2022/12/26 06:34:54;0.00;0.00;0.62;0.00;0.00;0.62;2.00;1.60;;;22.90;29.70;;;;;;2259276;61;20423;-59
2022/12/26 06:37:40;0.00;0.00;0.62;0.00;0.00;0.62;1.90;1.50;;;22.80;29.60;;;;;;2258724;61;20449;-59
2022/12/26 06:40:24;0.00;0.00;0.62;0.00;0.00;0.62;2.03;1.73;;;22.90;30.20;;;;;;2258582;61;20360;-60
2022/12/26 06:43:09;0.00;0.00;0.62;0.00;0.00;0.62;2.33;1.77;;;22.90;29.70;;;;;;2259241;61;20372;-56
2022/12/26 06:45:55;0.00;0.00;0.62;0.00;0.00;0.62;2.30;1.73;;;22.90;29.70;;;;;;2258697;61;20468;-52
2022/12/26 06:48:40;0.00;0.00;0.62;0.00;0.00;0.62;2.03;1.60;;;22.80;29.70;;;;;;2259343;61;20938;-53
2022/12/26 06:51:27;0.00;0.00;0.62;0.00;0.00;0.62;2.43;1.57;;;22.80;29.70;;;;;;2258767;61;20400;-59
2022/12/26 06:54:13;0.00;0.00;0.62;0.00;0.00;0.62;2.33;2.13;;;22.80;29.70;;;;;;2258592;61;20385;-56
2022/12/26 06:56:58;0.00;0.00;0.62;0.00;0.00;0.62;2.23;1.70;;;22.80;29.70;;;;;;2258756;61;20365;-58
2022/12/26 06:59:43;0.00;0.00;0.62;0.00;0.00;0.62;2.40;1.90;;;22.80;29.70;;;;;;2259107;61;20384;-53
2022/12/26 07:02:28;0.00;0.00;0.62;0.00;0.00;0.62;2.10;1.57;;;22.80;29.70;;;;;;2258560;61;20353;-52
2022/12/26 07:05:12;0.00;0.00;0.62;0.00;0.00;0.62;2.00;1.53;;;22.80;29.70;;;;;;2259019;61;20859;-59
2022/12/26 07:07:57;0.00;0.00;0.62;0.00;0.00;0.62;1.80;1.50;;;22.80;29.70;;;;;;2259285;61;20360;-54
2022/12/26 07:10:43;0.00;0.00;0.62;0.00;0.00;0.62;2.37;1.90;;;22.80;29.70;;;;;;2259289;61;20381;-55
2022/12/26 07:13:28;0.00;0.00;0.62;0.00;0.00;0.62;2.60;2.23;;;22.80;29.70;;;;;;2258437;61;20389;-59
2022/12/26 07:16:14;0.00;0.00;0.62;0.00;0.00;0.62;2.80;2.07;;;22.80;29.70;;;;;;2258639;61;20592;-56
2022/12/26 07:18:58;0.00;0.00;0.62;0.00;0.00;0.62;2.03;1.83;;;22.80;29.70;;;;;;2258833;61;20748;-51
2022/12/26 07:21:45;0.00;0.00;0.62;0.00;0.00;0.62;2.00;1.70;;;22.80;29.70;;;;;;2260063;61;20973;-59
2022/12/26 07:24:30;0.00;0.00;0.62;0.00;0.00;0.62;4.60;1.50;;;22.80;30.20;;;;;;2259020;61;20480;-53
2022/12/26 07:27:16;0.00;0.00;0.62;0.00;0.00;0.62;2.73;1.73;;;22.80;29.80;;;;;;2259878;61;20782;-60
2022/12/26 07:30:01;0.00;0.00;0.62;0.00;0.00;0.62;2.50;1.80;;;22.80;29.80;;;;;;2260040;61;20423;-60
2022/12/26 07:32:46;0.00;0.00;0.62;0.00;0.00;0.62;2.33;2.07;;;22.70;29.80;;;;;;2259526;61;20439;-58
2022/12/26 07:35:30;0.00;0.00;0.62;0.00;0.00;0.62;2.13;1.77;;;22.70;29.80;;;;;;2260079;61;20407;-58
2022/12/26 07:38:15;0.00;0.00;0.62;0.00;0.00;0.62;2.30;1.80;;;22.70;29.80;;;;;;2260805;61;20569;-60
2022/12/26 07:41:56;0.00;0.00;0.62;0.00;0.00;0.62;2.50;2.00;;;22.70;29.90;;;;;;2263807;61;20360;-59
2022/12/26 07:44:07;0.00;0.00;0.62;0.00;0.00;0.62;2.10;1.80;;;22.70;29.90;;;;;;2263777;61;20380;-58
2022/12/26 07:46:52;0.00;0.00;0.62;0.00;0.00;0.62;2.30;2.10;;;22.70;29.90;;;;;;2263210;61;20380;-52
2022/12/26 07:49:37;0.00;0.00;0.62;0.00;0.00;0.62;2.40;2.10;;;22.70;29.90;;;;;;2263546;61;20364;-58
2022/12/26 07:52:22;0.00;0.00;0.62;0.00;0.00;0.62;2.30;1.90;;;22.70;29.90;;;;;;2263918;61;20384;-56
2022/12/26 07:55:08;0.00;0.00;0.62;0.00;0.00;0.62;2.40;1.80;;;22.70;30.00;;;;;;2263829;61;20364;-56
2022/12/26 07:57:53;0.00;0.00;0.62;0.00;0.00;0.62;2.40;1.87;;;22.70;30.00;;;;;;2262588;61;20414;-57
2022/12/26 08:00:39;0.00;0.00;0.62;0.00;0.00;0.62;3.33;2.90;;;22.70;30.00;;;;;;2262205;61;20388;-55
2022/12/26 08:03:23;0.00;0.00;0.62;0.00;0.00;0.62;2.63;2.27;;;22.70;29.90;;;;;;2263048;61;20376;-58
2022/12/26 08:06:09;0.00;0.00;0.62;0.00;0.00;0.62;2.23;1.77;;;22.70;29.90;;;;;;2263242;61;20360;-59
2022/12/26 08:08:54;0.00;0.00;0.62;0.00;0.00;0.62;3.13;2.43;;;22.70;29.90;;;;;;2263451;61;20770;-57
2022/12/26 08:11:38;0.00;0.00;0.62;0.00;0.00;0.62;3.20;2.80;;;22.70;29.90;;;;;;2263933;61;20836;-57
2022/12/26 08:14:23;0.00;0.00;0.62;0.00;0.00;0.62;2.53;2.20;;;22.60;29.80;;;;;;2263657;61;20976;-57
2022/12/26 08:17:09;0.00;0.00;0.62;0.00;0.00;0.62;3.23;2.63;;;22.60;29.80;;;;;;2263694;61;20498;-58
2022/12/26 08:19:53;0.00;0.00;0.62;0.00;0.00;0.62;3.17;2.77;;;22.60;30.30;;;;;;2264164;61;20834;-58
2022/12/26 08:22:38;0.00;0.00;0.62;0.00;0.00;0.62;3.63;2.70;;;22.60;29.80;;;;;;2262970;61;20395;-57
2022/12/26 08:25:23;0.00;0.00;0.62;0.00;0.00;0.62;3.70;3.03;;;22.60;30.40;;;;;;2263792;61;20360;-53
2022/12/26 08:28:08;0.00;0.00;0.62;0.00;0.00;0.62;2.73;2.50;;;22.50;29.80;;;;;;2263776;61;20926;-59
2022/12/26 08:30:53;0.00;0.00;0.62;0.00;0.00;0.62;4.03;3.27;;;22.50;30.40;;;;;;2263466;61;20533;-59
2022/12/26 08:33:39;0.00;0.00;0.62;0.00;0.00;0.62;4.43;3.70;;;22.50;29.80;;;;;;2263598;61;20419;-53
2022/12/26 08:36:24;0.00;0.00;0.62;0.00;0.00;0.62;3.27;2.97;;;22.40;29.70;;;;;;2263848;61;20927;-57
2022/12/26 08:39:09;0.00;0.00;0.62;0.00;0.00;0.62;4.53;3.70;;;22.40;29.60;;;;;;2263234;61;20886;-59
2022/12/26 08:41:53;0.00;0.00;0.62;0.00;0.00;0.62;3.90;3.10;;;22.40;29.60;;;;;;2263830;61;20364;-59
2022/12/26 08:44:38;0.00;0.00;0.62;0.00;0.00;0.62;3.47;3.17;;;22.30;29.50;;;;;;2263338;61;21012;-59
2022/12/26 08:47:25;0.00;0.00;0.62;0.00;0.00;0.62;4.30;3.73;;;22.30;29.50;;;;;;2263083;61;20678;-58
2022/12/26 08:50:11;0.00;0.00;0.62;0.00;0.00;0.62;3.63;3.33;;;22.20;29.40;;;;;;2264062;61;20364;-59
2022/12/26 08:52:56;0.00;0.00;0.62;0.00;0.00;0.62;3.80;3.37;;;22.20;29.50;;;;;;2262800;61;20992;-61
2022/12/26 08:55:41;0.00;0.00;0.62;0.00;0.00;0.62;3.23;2.70;;;22.20;29.50;;;;;;2263567;61;20347;-59
2022/12/26 08:58:26;0.00;0.00;0.62;0.00;0.00;0.62;2.47;1.80;;;22.20;29.60;;;;;;2263805;61;21307;-59
2022/12/26 09:01:13;0.00;0.00;0.62;0.00;0.00;0.62;2.33;2.13;;;22.20;29.70;;;;;;2262984;61;20905;-59
2022/12/26 09:04:02;0.00;0.00;0.62;0.00;0.00;0.62;2.50;1.83;;;22.20;29.80;;;;;;2264051;61;20376;-59
2022/12/26 09:06:48;0.00;0.00;0.62;0.00;0.00;0.62;2.33;1.57;;;22.20;29.80;;;;;;2262761;61;20364;-59
2022/12/26 09:09:32;0.00;0.00;0.62;0.00;0.00;0.62;2.90;1.40;;;22.20;29.80;;;;;;2263750;61;20771;-60
2022/12/26 09:12:17;0.00;0.00;0.62;0.00;0.00;0.62;2.00;1.60;;;22.30;29.80;;;;;;2263929;61;20391;-58
2022/12/26 09:15:02;0.00;0.00;0.62;0.00;0.00;0.62;2.13;1.90;;;22.30;29.80;;;;;;2263318;61;20434;-60
2022/12/26 09:17:47;0.00;0.00;0.62;0.00;0.00;0.62;2.30;1.60;;;22.30;29.80;;;;;;2263976;61;20520;-60
2022/12/26 09:20:32;0.00;0.00;0.62;0.00;0.00;0.62;1.80;1.30;;;22.40;29.90;;;;;;2263580;61;20407;-60
2022/12/26 09:23:18;0.00;0.00;0.62;0.00;0.00;0.62;2.17;1.80;;;22.40;29.90;;;;;;2263642;61;20427;-60
2022/12/26 09:26:05;0.00;0.00;0.62;0.00;0.00;0.62;2.37;1.70;;;22.40;29.90;;;;;;2263766;61;20392;-60
2022/12/26 09:28:50;0.00;0.00;0.62;0.00;0.00;0.62;2.20;1.80;;;22.50;29.90;;;;;;2263261;61;20441;-61
2022/12/26 09:31:35;0.00;0.00;0.62;0.00;0.00;0.62;2.60;1.90;;;22.50;30.40;;;;;;2264392;61;20888;-57
2022/12/26 09:34:19;0.00;0.00;0.62;0.00;0.00;0.62;2.10;1.47;;;22.50;29.90;;;;;;2264127;61;20460;-58
2022/12/26 09:37:04;0.00;0.00;0.62;0.00;0.00;0.62;2.10;1.47;;;22.60;29.90;;;;;;2263466;61;20762;-57
2022/12/26 09:39:50;0.00;0.00;0.62;0.00;0.00;0.62;1.90;1.20;;;22.60;29.90;;;;;;2260776;61;20368;-58
2022/12/26 09:42:42;0.00;0.00;0.62;0.00;0.00;0.62;1.90;1.63;;;22.60;29.90;;;;;;2259861;61;20410;-58
2022/12/26 09:45:43;0.00;0.00;0.62;0.00;0.00;0.62;2.90;1.70;;;22.60;29.80;;;;;;2259406;61;20507;-58
2022/12/26 09:48:35;0.00;0.00;0.62;0.00;0.00;0.62;1.70;1.30;;;22.70;29.90;;;;;;2260056;61;20510;-59
2022/12/26 09:51:19;0.00;0.00;0.62;0.00;0.00;0.62;1.70;1.40;;;22.70;29.90;;;;;;2259238;61;20364;-58
2022/12/26 09:54:07;0.00;0.00;0.62;0.00;0.00;0.62;1.70;1.40;;;22.70;29.80;;;;;;2259294;61;20392;-57
2022/12/26 09:56:54;0.00;0.00;0.62;0.00;0.00;0.62;1.87;1.20;;;22.70;29.80;;;;;;2260069;61;20412;-56
2022/12/26 09:59:47;0.00;0.00;0.62;0.00;0.00;0.62;2.00;1.50;;;22.80;29.90;;;;;;2259708;61;20369;-59
2022/12/26 10:02:33;0.00;0.00;0.62;0.00;0.00;0.62;1.90;1.20;;;22.70;29.80;;;;;;2260122;61;20381;-59
2022/12/26 10:05:20;0.00;0.00;0.62;0.00;0.00;0.62;1.60;1.40;;;22.80;29.80;;;;;;2259893;61;20403;-58
2022/12/26 10:08:24;0.00;0.00;0.62;0.00;0.00;0.62;1.60;1.30;;;22.80;29.80;;;;;;2259482;61;20364;-57
2022/12/26 10:11:17;0.00;0.00;0.62;0.00;0.00;0.62;2.07;1.43;;;22.80;29.80;;;;;;2260381;61;20364;-59
2022/12/26 10:14:10;0.00;0.00;0.62;0.00;0.00;0.62;1.70;1.30;;;22.80;29.80;;;;;;2259513;61;20408;-59
2022/12/26 10:17:03;0.00;0.00;0.62;0.00;0.00;0.62;2.10;1.00;;;22.90;29.80;;;;;;2259535;61;20369;-60
2022/12/26 10:20:08;0.00;0.00;0.62;0.00;0.00;0.62;1.50;1.20;;;22.90;29.80;;;;;;2260085;61;20356;-59
2022/12/26 10:23:29;0.00;0.00;0.62;0.00;0.00;0.62;2.53;1.37;;;22.90;29.80;;;;;;2259718;61;20353;-58
2022/12/26 10:26:19;0.00;0.00;0.62;0.00;0.00;0.62;1.50;1.13;;;22.90;29.70;;;;;;2260109;61;20369;-56
2022/12/26 10:29:14;0.00;0.00;0.62;0.00;0.00;0.62;1.90;1.43;;;22.90;29.70;;;;;;2259731;61;20361;-59
2022/12/26 10:32:05;0.00;0.00;0.62;0.00;0.00;0.62;2.00;1.80;;;22.90;29.70;;;;;;2260182;61;20365;-59
2022/12/26 10:34:52;0.00;0.00;0.62;0.00;0.00;0.62;3.30;1.60;;;22.90;29.70;;;;;;2259821;61;20384;-57
2022/12/26 10:37:39;0.00;0.00;0.62;0.00;0.00;0.62;2.07;1.40;;;22.90;29.70;;;;;;2259724;61;20369;-58
2022/12/26 10:40:33;0.00;0.00;0.62;0.00;0.00;0.62;1.87;1.53;;;23.00;29.70;;;;;;2259892;61;20683;-60
2022/12/26 10:43:28;0.00;0.00;0.62;0.00;0.00;0.62;1.63;1.30;;;23.00;30.20;;;;;;2258938;61;20377;-59
2022/12/26 10:46:38;0.00;0.00;0.62;0.00;0.00;0.62;1.70;1.23;;;23.00;29.70;;;;;;2259243;61;20373;-61
2022/12/26 10:49:26;0.00;0.00;0.62;0.00;0.00;0.62;1.70;1.30;;;23.00;29.70;;;;;;2259505;61;20862;-58
2022/12/26 10:52:12;0.00;0.00;0.62;0.00;0.00;0.62;1.57;0.97;;;23.00;29.80;;;;;;2259339;61;20833;-61
2022/12/26 10:54:59;0.00;0.00;0.62;0.00;0.00;0.62;1.73;1.13;;;23.00;30.30;;;;;;2259382;61;20896;-60
2022/12/26 10:57:52;0.00;0.00;0.62;0.00;0.00;0.62;1.40;0.90;;;23.00;30.20;;;;;;2258871;61;20357;-60
2022/12/26 11:00:36;0.00;0.00;0.62;0.00;0.00;0.62;1.73;1.03;;;23.00;29.80;;;;;;2259533;61;20756;-58
2022/12/26 11:03:22;0.00;0.00;0.62;0.00;0.00;0.62;1.90;1.20;;;23.10;29.90;;;;;;2259313;61;20384;-60
2022/12/26 11:06:10;0.00;0.00;0.62;0.00;0.00;0.62;1.60;1.23;;;23.10;29.80;;;;;;2258752;61;20376;-58
2022/12/26 11:08:58;0.00;0.00;0.62;0.00;0.00;0.62;1.50;1.13;;;23.10;29.70;;;;;;2259527;61;20460;-60
2022/12/26 11:11:50;0.00;0.00;0.62;0.00;0.00;0.62;1.50;1.20;;;23.20;29.70;;;;;;2259520;61;20357;-59
2022/12/26 11:14:38;0.00;0.00;0.62;0.00;0.00;0.62;1.70;1.03;;;23.20;29.60;;;;;;2258609;61;20377;-57
2022/12/26 11:17:30;0.00;0.00;0.62;0.00;0.00;0.62;1.67;1.27;;;23.20;29.60;;;;;;2256311;61;21017;-57
2022/12/26 11:20:29;0.00;0.00;0.62;0.00;0.00;0.62;1.50;1.10;;;23.20;29.50;;;;;;2256542;61;20400;-57
2022/12/26 11:23:25;0.00;0.00;0.62;0.00;0.00;0.62;1.50;1.17;;;23.20;29.40;;;;;;2259709;61;20377;-55
2022/12/26 11:26:21;0.00;0.00;0.62;0.00;0.00;0.62;1.43;0.90;;;23.20;29.40;;;;;;2256997;61;20428;-58
2022/12/26 11:29:11;0.00;0.00;0.62;0.00;0.00;0.62;1.70;1.30;;;23.30;29.50;;;;;;2256730;61;20369;-56
2022/12/26 11:32:01;0.00;0.00;0.62;0.00;0.00;0.62;1.60;1.20;;;23.30;29.50;;;;;;2260140;61;20361;-58
2022/12/26 11:34:48;0.00;0.00;0.62;0.00;0.00;0.62;1.40;0.93;;;23.30;29.50;;;;;;2259034;61;20506;-58
2022/12/26 11:37:40;0.00;0.00;0.62;0.00;0.00;0.62;1.90;1.20;;;23.30;29.40;;;;;;2259249;61;20419;-55
2022/12/26 11:40:31;0.00;0.00;0.62;0.00;0.00;0.62;1.40;0.97;;;23.30;29.40;;;;;;2259797;61;20515;-61
2022/12/26 11:43:19;0.00;0.00;0.62;0.00;0.00;0.62;1.40;1.00;;;23.30;29.40;;;;;;2259020;61;20428;-54
2022/12/26 11:46:04;0.00;0.00;0.62;0.00;0.00;0.62;1.50;1.00;;;23.30;29.30;;;;;;2260122;61;20377;-55
2022/12/26 11:48:50;0.00;0.00;0.62;0.00;0.00;0.62;1.50;1.00;;;23.30;29.30;;;;;;2259911;61;20408;-56
2022/12/26 11:51:39;0.00;0.00;0.62;0.00;0.00;0.62;1.60;1.13;;;23.30;29.30;;;;;;2259752;61;20364;-59
2022/12/26 11:54:30;0.00;0.00;0.62;0.00;0.00;0.62;1.70;1.20;;;23.30;29.30;;;;;;2259808;61;20381;-56
2022/12/26 11:57:21;0.00;0.00;0.62;0.00;0.00;0.62;1.40;0.90;;;23.30;29.30;;;;;;2259823;61;20964;-57
2022/12/26 12:00:17;0.00;0.00;0.62;0.00;0.00;0.62;2.23;1.30;;;23.40;29.30;;;;;;2260588;61;20369;-59
2022/12/26 12:03:08;0.00;0.00;0.62;0.00;0.00;0.62;1.67;1.00;;;23.40;29.30;;;;;;2260397;61;20415;-59
2022/12/26 12:06:07;0.00;0.00;0.62;0.00;0.00;0.62;2.33;1.10;;;23.40;29.30;;;;;;2260674;61;20361;-60
2022/12/26 12:09:04;0.00;0.00;0.62;0.00;0.00;0.62;1.97;1.40;;;23.40;29.30;;;;;;2260788;61;20550;-61
2022/12/26 12:11:58;0.00;0.00;0.62;0.00;0.00;0.62;2.27;1.60;;;23.40;29.30;;;;;;2259732;61;20868;-57
2022/12/26 12:14:58;0.00;0.00;0.62;0.00;0.00;0.62;1.50;1.00;;;23.40;29.30;;;;;;2257872;61;20388;-57
2022/12/26 12:18:01;0.00;0.00;0.62;0.00;0.00;0.62;1.80;1.20;;;23.40;29.40;;;;;;2259790;61;20408;-58
2022/12/26 12:21:09;0.00;0.00;0.62;0.00;0.00;0.62;1.90;1.33;;;23.40;29.50;;;;;;2259247;61;20384;-58
2022/12/26 12:24:27;0.00;0.00;0.62;0.00;0.00;0.62;1.83;1.10;;;23.40;29.50;;;;;;2259780;61;20400;-60
2022/12/26 12:27:21;0.00;0.00;0.62;0.00;0.00;0.62;2.07;1.23;;;23.40;29.50;;;;;;2259926;61;20361;-60
2022/12/26 12:30:18;0.00;0.00;0.62;0.00;0.00;0.62;1.90;1.40;;;23.40;29.50;;;;;;2260080;61;20414;-59
2022/12/26 12:33:24;0.00;0.00;0.62;0.00;0.00;0.62;2.00;1.30;;;23.40;29.50;;;;;;2262321;61;20443;-52
2022/12/26 12:36:11;0.00;0.00;0.62;0.00;0.00;0.62;3.17;2.37;;;23.40;29.50;;;;;;2260359;61;20365;-58
2022/12/26 12:39:08;0.00;0.00;0.62;0.00;0.00;0.62;3.40;2.67;;;23.40;29.50;;;;;;2259656;61;21019;-60
2022/12/26 12:42:28;0.00;0.00;0.62;0.00;0.00;0.62;3.37;2.53;;;23.40;29.60;;;;;;2258886;61;20376;-56
2022/12/26 12:45:29;0.00;0.00;0.62;0.00;0.00;0.62;2.97;2.20;;;23.40;29.60;;;;;;2259794;61;20373;-59
2022/12/26 12:48:58;0.00;0.00;0.62;0.00;0.00;0.62;3.33;2.40;;;23.50;29.60;;;;;;2260213;61;20450;-62
2022/12/26 12:51:51;0.00;0.00;0.62;0.00;0.00;0.62;2.67;2.10;;;23.50;29.60;;;;;;2260313;61;20468;-60
2022/12/26 12:55:16;0.00;0.00;0.62;0.00;0.00;0.62;3.00;2.30;;;23.50;29.60;;;;;;2260239;61;20427;-59
2022/12/26 12:58:12;0.00;0.00;0.62;0.00;0.00;0.62;2.80;1.87;;;23.50;29.60;;;;;;2260546;61;20909;-61
2022/12/26 13:01:04;0.00;0.00;0.62;0.00;0.00;0.62;2.40;1.53;;;23.50;29.60;;;;;;2260470;61;20384;-59
2022/12/26 13:03:56;0.00;0.00;0.62;0.00;0.00;0.62;3.33;2.07;;;23.50;29.50;;;;;;2260011;61;20789;-59
2022/12/26 13:06:47;0.00;0.00;0.62;0.00;0.00;0.62;2.30;1.80;;;23.50;29.50;;;;;;2257325;61;20415;-61
2022/12/26 13:09:41;0.00;0.00;0.62;0.00;0.00;0.62;2.10;1.90;;;23.50;29.50;;;;;;2260397;61;20389;-62
2022/12/26 13:12:33;0.00;0.00;0.62;0.00;0.00;0.62;2.30;1.90;;;23.50;29.50;;;;;;2259861;61;20807;-57
2022/12/26 13:15:33;0.00;0.00;0.62;0.00;0.00;0.62;2.80;1.80;;;23.50;29.50;;;;;;2260390;61;20408;-57